createdAt,value
2019-06-08T00:00:47.268Z,16.38
2019-06-08T00:03:16.683Z,16.30
2019-06-08T00:05:45.445Z,16.31
2019-06-08T00:08:14.804Z,16.50
2019-06-08T00:10:43.436Z,16.36
2019-06-08T00:13:13.139Z,16.36
2019-06-08T00:15:41.842Z,16.13
2019-06-08T00:18:10.527Z,16.10
2019-06-08T00:20:39.453Z,16.02
2019-06-08T00:23:07.966Z,16.10
2019-06-08T00:25:36.686Z,16.05
2019-06-08T00:28:05.489Z,15.99
2019-06-08T00:30:35.275Z,16.02
2019-06-08T00:33:04.278Z,16.04
2019-06-08T00:35:32.850Z,15.70
2019-06-08T00:38:01.583Z,15.82
2019-06-08T00:40:30.342Z,15.83
2019-06-08T00:42:58.851Z,15.91
2019-06-08T00:45:27.404Z,15.70
2019-06-08T00:47:56.052Z,15.67
2019-06-08T00:50:25.155Z,15.79
2019-06-08T00:52:53.822Z,15.85
2019-06-08T00:55:23.662Z,15.83
2019-06-08T00:57:52.780Z,16.00
2019-06-08T01:00:22.586Z,15.73
2019-06-08T01:02:51.276Z,15.78
2019-06-08T01:05:20.017Z,15.75
2019-06-08T01:07:48.754Z,15.71
2019-06-08T01:10:19.150Z,15.56
2019-06-08T01:12:47.763Z,15.71
2019-06-08T01:15:16.895Z,15.85
2019-06-08T01:18:01.335Z,15.82
2019-06-08T01:20:16.416Z,15.85
2019-06-08T01:22:45.037Z,15.72
2019-06-08T01:25:14.049Z,16.07
2019-06-08T01:27:42.769Z,16.17
2019-06-08T01:30:11.789Z,16.21
2019-06-08T01:32:40.540Z,16.53
2019-06-08T01:35:09.250Z,16.78
2019-06-08T01:37:37.987Z,16.91
2019-06-08T01:40:07.734Z,17.34
2019-06-08T01:42:36.449Z,17.41
2019-06-08T01:45:07.192Z,17.56
2019-06-08T01:47:35.834Z,17.75
2019-06-08T01:50:05.632Z,17.80
2019-06-08T01:52:34.829Z,17.94
2019-06-08T01:55:04.379Z,18.27
2019-06-08T01:57:33.831Z,18.27
2019-06-08T02:00:28.761Z,18.23
2019-06-08T02:02:34.219Z,18.42
2019-06-08T02:05:03.228Z,18.55
2019-06-08T02:07:32.425Z,18.68
2019-06-08T02:10:01.152Z,18.69
2019-06-08T02:12:31.065Z,18.78
2019-06-08T02:15:00.154Z,18.78
2019-06-08T02:17:29.354Z,18.84
2019-06-08T02:19:58.001Z,18.73
2019-06-08T02:22:26.795Z,18.55
2019-06-08T02:24:55.224Z,18.36
2019-06-08T02:27:23.727Z,18.08
2019-06-08T02:29:52.210Z,17.88
2019-06-08T02:32:20.679Z,17.71
2019-06-08T02:34:49.436Z,17.64
2019-06-08T02:37:18.150Z,17.56
2019-06-08T02:39:46.706Z,17.51
2019-06-08T02:42:15.259Z,17.51
2019-06-08T02:44:43.767Z,17.42
2019-06-08T02:47:16.178Z,17.51
2019-06-08T02:49:42.508Z,17.63
2019-06-08T02:52:11.535Z,17.68
2019-06-08T02:54:41.357Z,17.73
2019-06-08T02:57:11.434Z,17.73
2019-06-08T02:59:41.443Z,17.67
2019-06-08T03:02:11.764Z,17.53
2019-06-08T03:04:41.318Z,17.50
2019-06-08T03:07:10.921Z,17.41
2019-06-08T03:09:41.094Z,17.31
2019-06-08T03:12:09.708Z,17.27
2019-06-08T03:14:41.857Z,17.15
2019-06-08T03:17:09.961Z,17.04
2019-06-08T03:19:39.962Z,16.97
2019-06-08T03:22:10.909Z,16.94
2019-06-08T03:24:38.893Z,16.96
2019-06-08T03:27:07.344Z,17.03
2019-06-08T03:29:37.264Z,17.03
2019-06-08T03:32:06.056Z,17.02
2019-06-08T03:34:35.707Z,17.04
2019-06-08T03:37:04.806Z,17.13
2019-06-08T03:39:35.247Z,17.02
2019-06-08T03:42:03.618Z,17.00
2019-06-08T03:44:32.114Z,17.07
2019-06-08T03:47:00.595Z,17.16
2019-06-08T03:49:40.989Z,17.07
2019-06-08T03:51:59.373Z,17.13
2019-06-08T03:54:27.875Z,17.09
2019-06-08T03:56:56.461Z,17.04
2019-06-08T03:59:24.969Z,16.97
2019-06-08T04:01:53.507Z,17.18
2019-06-08T04:04:22.002Z,17.00
2019-06-08T04:06:50.482Z,17.00
2019-06-08T04:09:18.995Z,16.99
2019-06-08T04:11:47.461Z,17.18
2019-06-08T04:14:15.973Z,17.29
2019-06-08T04:16:45.056Z,17.29
2019-06-08T04:19:14.666Z,17.29
2019-06-08T04:21:44.317Z,17.32
2019-06-08T04:24:12.892Z,17.36
2019-06-08T04:26:42.936Z,17.51
2019-06-08T04:29:11.602Z,17.45
2019-06-08T04:31:41.776Z,17.56
2019-06-08T04:34:10.437Z,17.44
2019-06-08T04:36:39.055Z,17.44
2019-06-08T04:39:08.430Z,17.64
2019-06-08T04:41:38.507Z,17.54
2019-06-08T04:44:07.138Z,17.68
2019-06-08T04:46:35.640Z,17.80
2019-06-08T04:49:04.238Z,17.88
2019-06-08T04:51:32.754Z,17.97
2019-06-08T04:54:01.247Z,18.00
2019-06-08T04:56:29.749Z,18.15
2019-06-08T04:58:58.225Z,18.28
2019-06-08T05:01:26.730Z,18.11
2019-06-08T05:03:55.207Z,17.97
2019-06-08T05:06:23.717Z,17.99
2019-06-08T05:08:52.187Z,17.91
2019-06-08T05:11:20.804Z,17.86
2019-06-08T05:13:49.852Z,17.58
2019-06-08T05:16:18.523Z,17.53
2019-06-08T05:18:47.389Z,17.40
2019-06-08T05:21:16.022Z,17.34
2019-06-08T05:23:45.590Z,17.06
2019-06-08T05:26:14.505Z,16.95
2019-06-08T05:28:43.222Z,17.11
2019-06-08T05:31:11.818Z,17.07
2019-06-08T05:33:41.318Z,16.94
2019-06-08T05:36:09.934Z,16.58
2019-06-08T05:38:39.459Z,16.20
2019-06-08T05:41:07.988Z,15.76
2019-06-08T05:43:36.569Z,15.65
2019-06-08T05:46:05.372Z,15.55
2019-06-08T05:48:33.863Z,15.41
2019-06-08T05:51:04.190Z,15.26
2019-06-08T05:53:32.748Z,15.23
2019-06-08T05:56:01.255Z,15.30
2019-06-08T05:58:29.722Z,15.50
2019-06-08T06:00:58.305Z,15.51
2019-06-08T06:03:26.787Z,15.52
2019-06-08T06:05:55.280Z,15.67
2019-06-08T06:08:23.750Z,15.84
2019-06-08T06:10:52.261Z,16.08
2019-06-08T06:13:20.740Z,16.32
2019-06-08T06:15:49.254Z,16.27
2019-06-08T06:18:17.702Z,16.61
2019-06-08T06:20:47.293Z,16.52
2019-06-08T06:23:15.822Z,16.74
2019-06-08T06:25:45.383Z,17.10
2019-06-08T06:28:13.970Z,17.28
2019-06-08T06:30:44.116Z,17.23
2019-06-08T06:33:12.720Z,17.20
2019-06-08T06:35:41.637Z,17.17
2019-06-08T06:38:10.269Z,17.05
2019-06-08T06:40:38.827Z,17.40
2019-06-08T06:43:07.326Z,17.49
2019-06-08T06:45:35.805Z,17.74
2019-06-08T06:48:04.391Z,17.92
2019-06-08T06:50:32.852Z,18.10
2019-06-08T06:53:01.348Z,18.13
2019-06-08T06:55:29.833Z,18.04
2019-06-08T06:57:58.326Z,17.76
2019-06-08T07:00:32.140Z,18.07
2019-06-08T07:03:01.883Z,18.34
2019-06-08T07:05:30.421Z,18.45
2019-06-08T07:07:58.927Z,18.23
2019-06-08T07:10:27.397Z,18.01
2019-06-08T07:12:55.898Z,17.92
2019-06-08T07:15:26.795Z,17.81
2019-06-08T07:17:55.828Z,18.09
2019-06-08T07:20:24.366Z,18.54
2019-06-08T07:22:52.871Z,18.88
2019-06-08T07:25:21.338Z,19.06
2019-06-08T07:27:50.523Z,19.08
2019-06-08T07:30:19.146Z,19.24
2019-06-08T07:32:49.141Z,19.28
2019-06-08T07:35:17.810Z,19.50
2019-06-08T07:37:47.281Z,19.77
2019-06-08T07:40:16.576Z,19.87
2019-06-08T07:42:45.082Z,20.30
2019-06-08T07:45:13.696Z,20.73
2019-06-08T07:47:42.294Z,21.01
2019-06-08T07:50:11.167Z,20.98
2019-06-08T07:52:39.663Z,20.78
2019-06-08T07:55:08.952Z,20.72
2019-06-08T07:57:37.455Z,20.70
2019-06-08T08:00:09.613Z,20.44
2019-06-08T08:02:38.341Z,20.26
2019-06-08T08:05:07.884Z,20.07
2019-06-08T08:07:36.722Z,19.74
2019-06-08T08:10:09.049Z,19.38
2019-06-08T08:12:38.096Z,19.37
2019-06-08T08:15:10.537Z,19.48
2019-06-08T08:17:39.492Z,19.54
2019-06-08T08:20:08.724Z,19.63
2019-06-08T08:22:38.174Z,19.87
2019-06-08T08:25:10.508Z,19.90
2019-06-08T08:27:39.112Z,19.92
2019-06-08T08:30:08.541Z,19.86
2019-06-08T08:32:37.984Z,19.87
2019-06-08T08:35:08.848Z,19.75
2019-06-08T08:37:38.179Z,19.64
2019-06-08T08:40:08.363Z,19.84
2019-06-08T08:42:38.659Z,20.49
2019-06-08T08:45:08.643Z,20.64
2019-06-08T08:47:38.705Z,20.66
2019-06-08T08:50:08.980Z,20.66
2019-06-08T08:52:40.708Z,20.57
2019-06-08T08:55:08.490Z,20.65
2019-06-08T08:57:41.170Z,20.32
2019-06-08T09:00:09.238Z,20.23
2019-06-08T09:02:38.034Z,20.22
2019-06-08T09:05:08.628Z,20.63
2019-06-08T09:07:38.465Z,21.06
2019-06-08T09:10:11.273Z,21.14
2019-06-08T09:12:39.517Z,20.57
2019-06-08T09:15:08.753Z,20.70
2019-06-08T09:17:38.841Z,20.95
2019-06-08T09:20:13.099Z,21.00
2019-06-08T09:22:52.319Z,21.12
2019-06-08T09:25:09.074Z,21.07
2019-06-08T09:27:38.251Z,21.20
2019-06-08T09:30:08.410Z,21.11
2019-06-08T09:32:38.213Z,20.92
2019-06-08T09:35:09.080Z,20.47
2019-06-08T09:37:37.621Z,20.79
2019-06-08T09:40:06.676Z,20.87
2019-06-08T09:42:35.227Z,20.91
2019-06-08T09:45:08.617Z,21.12
2019-06-08T09:47:38.114Z,21.66
2019-06-08T09:50:09.241Z,21.87
2019-06-08T09:52:40.937Z,21.67
2019-06-08T09:55:09.807Z,21.61
2019-06-08T09:57:38.642Z,21.70
2019-06-08T10:00:17.577Z,21.67
2019-06-08T10:02:38.973Z,21.23
2019-06-08T10:05:07.855Z,21.61
2019-06-08T10:07:38.943Z,22.06
2019-06-08T10:10:09.620Z,22.31
2019-06-08T10:12:37.784Z,22.43
2019-06-08T10:15:08.200Z,22.81
2019-06-08T10:17:37.719Z,22.23
2019-06-08T10:20:10.062Z,22.41
2019-06-08T10:22:37.750Z,22.56
2019-06-08T10:25:10.751Z,22.54
2019-06-08T10:27:38.640Z,21.98
2019-06-08T10:30:10.031Z,21.90
2019-06-08T10:32:39.207Z,22.08
2019-06-08T10:35:10.425Z,22.16
2019-06-08T10:37:38.737Z,22.59
2019-06-08T10:40:09.973Z,22.63
2019-06-08T10:42:40.167Z,22.43
2019-06-08T10:45:14.629Z,22.20
2019-06-08T10:47:40.596Z,22.23
2019-06-08T10:50:15.081Z,23.15
2019-06-08T10:52:41.073Z,23.72
2019-06-08T10:55:11.982Z,25.41
2019-06-08T10:57:39.974Z,25.74
2019-06-08T11:00:20.123Z,25.51
2019-06-08T11:02:42.995Z,25.81
2019-06-08T11:05:13.916Z,27.02
2019-06-08T11:07:41.888Z,28.17
2019-06-08T11:10:12.495Z,28.55
2019-06-08T11:12:41.123Z,28.31
2019-06-08T11:15:11.752Z,27.57
2019-06-08T11:17:40.223Z,28.75
2019-06-08T11:20:13.024Z,30.35
2019-06-08T11:22:39.068Z,30.44
2019-06-08T11:25:15.468Z,28.63
2019-06-08T11:27:38.872Z,28.36
2019-06-08T11:30:14.307Z,29.17
2019-06-08T11:32:38.354Z,29.42
2019-06-08T11:35:10.712Z,29.31
2019-06-08T11:37:38.675Z,29.05
2019-06-08T11:40:10.982Z,27.02
2019-06-08T11:42:38.876Z,26.08
2019-06-08T11:45:11.147Z,27.11
2019-06-08T11:47:39.567Z,28.64
2019-06-08T11:50:12.933Z,28.45
2019-06-08T11:52:39.811Z,29.87
2019-06-08T11:55:11.305Z,29.26
2019-06-08T11:57:40.429Z,29.91
2019-06-08T12:00:22.363Z,30.28
2019-06-08T12:02:41.421Z,28.71
2019-06-08T12:05:12.450Z,29.56
2019-06-08T12:07:40.653Z,29.55
2019-06-08T12:10:11.336Z,30.28
2019-06-08T12:12:39.415Z,30.79
2019-06-08T12:15:11.285Z,30.22
2019-06-08T12:17:38.631Z,29.90
2019-06-08T12:20:08.622Z,31.85
2019-06-08T12:22:37.765Z,32.85
2019-06-08T12:25:08.238Z,32.93
2019-06-08T12:27:40.137Z,33.41
2019-06-08T12:30:13.579Z,31.96
2019-06-08T12:32:37.432Z,31.19
2019-06-08T12:35:08.157Z,31.16
2019-06-08T12:37:38.730Z,31.63
2019-06-08T12:40:10.218Z,32.37
2019-06-08T12:42:38.279Z,31.07
2019-06-08T12:45:07.481Z,30.97
2019-06-08T12:47:38.090Z,31.43
2019-06-08T12:50:08.916Z,31.67
2019-06-08T12:52:39.134Z,31.76
2019-06-08T12:55:14.421Z,32.24
2019-06-08T12:57:38.490Z,32.97
2019-06-08T13:00:09.407Z,33.11
2019-06-08T13:02:38.390Z,32.62
2019-06-08T13:05:11.591Z,31.27
2019-06-08T13:07:38.695Z,32.23
2019-06-08T13:10:10.980Z,32.71
2019-06-08T13:12:40.914Z,34.27
2019-06-08T13:15:11.257Z,34.64
2019-06-08T13:17:40.124Z,34.09
2019-06-08T13:20:12.710Z,34.29
2019-06-08T13:22:41.222Z,34.78
2019-06-08T13:25:21.054Z,34.94
2019-06-08T13:27:39.991Z,34.63
2019-06-08T13:30:09.567Z,33.45
2019-06-08T13:32:40.265Z,33.45
2019-06-08T13:35:10.402Z,33.07
2019-06-08T13:37:39.221Z,32.29
2019-06-08T13:40:08.360Z,31.63
2019-06-08T13:42:38.285Z,31.27
2019-06-08T13:45:08.960Z,32.32
2019-06-08T13:47:40.976Z,33.11
2019-06-08T13:50:10.993Z,32.80
2019-06-08T13:52:40.211Z,30.98
2019-06-08T13:55:08.954Z,30.28
2019-06-08T13:57:38.275Z,29.80
2019-06-08T14:00:09.339Z,29.32
2019-06-08T14:02:39.800Z,29.04
2019-06-08T14:05:08.710Z,29.21
2019-06-08T14:07:38.098Z,29.58
2019-06-08T14:10:08.395Z,30.83
2019-06-08T14:12:38.430Z,30.79
2019-06-08T14:15:08.597Z,31.51
2019-06-08T14:17:37.901Z,31.73
2019-06-08T14:20:08.048Z,31.87
2019-06-08T14:22:38.855Z,31.19
2019-06-08T14:25:10.458Z,31.50
2019-06-08T14:27:37.578Z,32.90
2019-06-08T14:30:08.394Z,33.35
2019-06-08T14:32:38.098Z,33.14
2019-06-08T14:35:08.739Z,33.24
2019-06-08T14:37:38.070Z,31.64
2019-06-08T14:40:08.312Z,30.67
2019-06-08T14:42:38.350Z,30.76
2019-06-08T14:45:11.007Z,32.44
2019-06-08T14:47:39.704Z,33.62
2019-06-08T14:50:08.935Z,33.81
2019-06-08T14:52:38.123Z,33.77
2019-06-08T14:55:07.992Z,33.86
2019-06-08T14:57:37.474Z,33.68
2019-06-08T15:00:12.171Z,34.33
2019-06-08T15:02:38.930Z,35.63
2019-06-08T15:05:07.912Z,33.09
2019-06-08T15:07:38.655Z,32.94
2019-06-08T15:10:09.806Z,34.13
2019-06-08T15:12:38.395Z,34.44
2019-06-08T15:15:08.327Z,33.89
2019-06-08T15:17:38.071Z,34.33
2019-06-08T15:20:08.950Z,34.16
2019-06-08T15:22:38.860Z,33.33
2019-06-08T15:25:11.011Z,34.39
2019-06-08T15:27:38.942Z,35.78
2019-06-08T15:30:07.803Z,34.27
2019-06-08T15:32:38.564Z,33.52
2019-06-08T15:35:08.045Z,33.78
2019-06-08T15:37:37.976Z,33.30
2019-06-08T15:40:08.852Z,31.05
2019-06-08T15:42:37.390Z,32.23
2019-06-08T15:45:08.604Z,33.10
2019-06-08T15:47:40.510Z,33.52
2019-06-08T15:50:08.917Z,33.18
2019-06-08T15:52:38.079Z,32.42
2019-06-08T15:55:10.868Z,32.36
2019-06-08T15:57:40.790Z,32.92
2019-06-08T16:00:10.155Z,32.68
2019-06-08T16:02:38.803Z,32.67
2019-06-08T16:05:07.332Z,33.34
2019-06-08T16:07:35.812Z,33.18
2019-06-08T16:10:06.754Z,32.49
2019-06-08T16:12:35.243Z,32.20
2019-06-08T16:15:05.483Z,32.93
2019-06-08T16:17:35.432Z,33.00
2019-06-08T16:20:05.040Z,32.33
2019-06-08T16:22:33.879Z,31.80
2019-06-08T16:25:02.479Z,32.19
2019-06-08T16:27:32.160Z,32.39
2019-06-08T16:30:08.750Z,33.09
2019-06-08T16:32:31.528Z,32.23
2019-06-08T16:35:00.106Z,32.21
2019-06-08T16:37:29.542Z,32.53
2019-06-08T16:39:58.085Z,32.37
2019-06-08T16:42:27.861Z,32.30
2019-06-08T16:44:56.419Z,30.68
2019-06-08T16:47:25.093Z,29.62
2019-06-08T16:49:53.568Z,29.27
2019-06-08T16:52:22.075Z,29.83
2019-06-08T16:54:50.548Z,29.47
2019-06-08T16:57:19.040Z,29.44
2019-06-08T16:59:47.510Z,29.62
2019-06-08T17:02:17.080Z,30.13
2019-06-08T17:04:45.671Z,29.51
2019-06-08T17:07:14.167Z,29.79
2019-06-08T17:09:42.710Z,29.67
2019-06-08T17:12:11.698Z,29.61
2019-06-08T17:14:40.760Z,29.20
2019-06-08T17:17:09.398Z,27.79
2019-06-08T17:19:38.437Z,27.04
2019-06-08T17:22:07.149Z,26.86
2019-06-08T17:24:36.689Z,27.63
2019-06-08T17:27:05.297Z,28.02
2019-06-08T17:29:34.907Z,28.18
2019-06-08T17:32:03.554Z,28.81
2019-06-08T17:34:32.020Z,28.60
2019-06-08T17:37:00.527Z,28.37
2019-06-08T17:39:29.602Z,28.29
2019-06-08T17:41:58.160Z,28.04
2019-06-08T17:44:26.641Z,28.01
2019-06-08T17:46:55.232Z,27.85
2019-06-08T17:49:23.716Z,27.69
2019-06-08T17:51:52.222Z,27.80
2019-06-08T17:54:20.694Z,27.59
2019-06-08T17:56:49.191Z,27.54
2019-06-08T17:59:17.669Z,26.97
2019-06-08T18:01:46.735Z,26.89
2019-06-08T18:04:17.394Z,26.86
2019-06-08T18:06:47.372Z,27.15
2019-06-08T18:09:17.539Z,27.21
2019-06-08T18:11:48.025Z,27.25
2019-06-08T18:14:18.115Z,26.13
2019-06-08T18:16:47.987Z,25.80
2019-06-08T18:19:19.576Z,25.92
2019-06-08T18:21:48.072Z,25.87
2019-06-08T18:24:17.512Z,24.73
2019-06-08T18:26:47.473Z,23.69
2019-06-08T18:29:18.034Z,22.75
2019-06-08T18:31:48.066Z,21.85
2019-06-08T18:34:17.787Z,21.13
2019-06-08T18:36:47.950Z,20.59
2019-06-08T18:39:18.055Z,20.14
2019-06-08T18:41:48.424Z,19.87
2019-06-08T18:44:17.480Z,19.49
2019-06-08T18:46:48.186Z,19.11
2019-06-08T18:49:17.870Z,18.82
2019-06-08T18:51:49.080Z,18.57
2019-06-08T18:54:18.804Z,18.31
2019-06-08T18:56:48.825Z,18.06
2019-06-08T18:59:18.494Z,17.80
2019-06-08T19:01:49.490Z,17.64
2019-06-08T19:04:17.650Z,17.38
2019-06-08T19:06:48.778Z,17.22
2019-06-08T19:09:17.825Z,17.07
2019-06-08T19:11:48.416Z,16.80
2019-06-08T19:14:17.895Z,16.60
2019-06-08T19:16:51.429Z,16.42
2019-06-08T19:19:16.932Z,16.28
2019-06-08T19:21:46.017Z,16.19
2019-06-08T19:24:18.051Z,16.05
2019-06-08T19:26:47.397Z,15.85
2019-06-08T19:29:19.130Z,15.66
2019-06-08T19:31:49.704Z,15.53
2019-06-08T19:34:18.120Z,15.42
2019-06-08T19:36:52.140Z,15.29
2019-06-08T19:39:18.016Z,15.21
2019-06-08T19:41:49.231Z,15.19
2019-06-08T19:44:18.296Z,15.11
2019-06-08T19:46:51.999Z,14.94
2019-06-08T19:49:17.443Z,14.85
2019-06-08T19:51:49.365Z,14.77
2019-06-08T19:54:18.286Z,14.69
2019-06-08T19:56:49.374Z,14.65
2019-06-08T19:59:18.246Z,14.60
2019-06-08T20:01:51.361Z,14.53
2019-06-08T20:04:18.245Z,14.48
2019-06-08T20:06:48.095Z,14.39
2019-06-08T20:09:17.519Z,14.24
2019-06-08T20:11:52.469Z,14.10
2019-06-08T20:14:16.213Z,14.01
2019-06-08T20:16:44.794Z,14.03
2019-06-08T20:19:13.266Z,13.99
2019-06-08T20:21:42.831Z,13.94
2019-06-08T20:24:11.420Z,13.91
2019-06-08T20:26:39.886Z,13.95
2019-06-08T20:29:13.529Z,13.97
2019-06-08T20:31:39.117Z,13.91
2019-06-08T20:34:07.763Z,13.80
2019-06-08T20:36:37.526Z,13.77
2019-06-08T20:39:08.346Z,13.67
2019-06-08T20:41:37.693Z,13.60
2019-06-08T20:44:08.480Z,13.56
2019-06-08T20:46:37.763Z,13.44
2019-06-08T20:49:08.391Z,13.37
2019-06-08T20:51:37.515Z,13.23
2019-06-08T20:54:07.940Z,13.11
2019-06-08T20:56:37.190Z,12.99
2019-06-08T20:59:08.036Z,12.96
2019-06-08T21:01:36.030Z,12.94
2019-06-08T21:04:04.668Z,12.86
2019-06-08T21:06:33.142Z,12.94
2019-06-08T21:09:01.620Z,12.93
2019-06-08T21:11:30.214Z,12.98
2019-06-08T21:13:58.678Z,13.02
2019-06-08T21:16:27.664Z,12.92
2019-06-08T21:18:58.048Z,12.84
2019-06-08T21:21:28.351Z,12.78
2019-06-08T21:24:00.964Z,12.74
2019-06-08T21:26:27.292Z,12.69
2019-06-08T21:29:00.135Z,12.61
2019-06-08T21:31:28.401Z,12.48
2019-06-08T21:34:00.472Z,12.40
2019-06-08T21:36:26.476Z,12.46
2019-06-08T21:38:59.891Z,12.48
2019-06-08T21:41:27.732Z,12.44
2019-06-08T21:43:59.594Z,12.38
2019-06-08T21:46:27.528Z,12.32
2019-06-08T21:48:56.895Z,12.31
2019-06-08T21:51:26.342Z,12.18
2019-06-08T21:53:54.809Z,12.16
2019-06-08T21:56:23.313Z,12.10
2019-06-08T21:58:53.045Z,12.03
2019-06-08T22:01:22.691Z,11.97
2019-06-08T22:03:51.727Z,11.93
2019-06-08T22:06:20.338Z,11.91
2019-06-08T22:08:49.915Z,11.91
2019-06-08T22:11:18.596Z,11.86
2019-06-08T22:13:47.629Z,11.83
2019-06-08T22:16:16.377Z,11.97
2019-06-08T22:18:47.329Z,11.69
2019-06-08T22:21:17.919Z,11.69
2019-06-08T22:23:47.478Z,11.69
2019-06-08T22:26:17.639Z,11.66
2019-06-08T22:28:48.047Z,11.90
2019-06-08T22:31:17.115Z,11.83
2019-06-08T22:33:48.169Z,11.72
2019-06-08T22:36:16.955Z,11.75
2019-06-08T22:38:47.603Z,11.77
2019-06-08T22:41:17.346Z,11.78
2019-06-08T22:43:48.001Z,11.76
2019-06-08T22:46:17.802Z,11.69
2019-06-08T22:48:47.802Z,11.72
2019-06-08T22:51:18.748Z,11.70
2019-06-08T22:53:47.800Z,11.68
2019-06-08T22:56:18.280Z,11.57
2019-06-08T22:58:47.931Z,11.42
2019-06-08T23:01:18.363Z,11.55
2019-06-08T23:03:47.644Z,11.58
2019-06-08T23:06:17.711Z,11.62
2019-06-08T23:08:48.038Z,11.67
2019-06-08T23:11:18.000Z,11.65
2019-06-08T23:13:47.313Z,11.58
2019-06-08T23:16:18.008Z,11.50
2019-06-08T23:18:47.784Z,11.46
2019-06-08T23:21:18.059Z,11.45
2019-06-08T23:23:47.749Z,11.45
2019-06-08T23:26:18.330Z,11.12
2019-06-08T23:28:47.144Z,10.93
2019-06-08T23:31:24.198Z,11.11
2019-06-08T23:33:48.280Z,11.21
2019-06-08T23:36:45.523Z,11.22
2019-06-08T23:38:48.127Z,11.18
2019-06-08T23:41:17.716Z,11.17
2019-06-08T23:43:48.107Z,11.03
2019-06-08T23:46:18.083Z,11.13
2019-06-08T23:48:48.442Z,11.16
2019-06-08T23:51:18.112Z,11.14
2019-06-08T23:53:47.787Z,11.17
2019-06-08T23:56:18.355Z,10.99
2019-06-08T23:58:48.267Z,10.83
